createdAt,value
2018-08-06T00:01:43.462Z,79.92
2018-08-06T00:06:39.087Z,80.79
2018-08-06T00:11:34.954Z,80.75
2018-08-06T00:16:30.745Z,81.71
2018-08-06T00:21:26.396Z,82.86
2018-08-06T00:26:22.354Z,83.34
2018-08-06T00:31:17.974Z,83.59
2018-08-06T00:36:13.987Z,83.78
2018-08-06T00:41:09.511Z,84.55
2018-08-06T00:46:06.473Z,84.84
2018-08-06T00:51:01.849Z,84.78
2018-08-06T00:55:58.695Z,85.22
2018-08-06T01:00:54.245Z,85.99
2018-08-06T01:05:50.098Z,86.18
2018-08-06T01:10:46.353Z,86.18
2018-08-06T01:15:42.170Z,87.01
2018-08-06T01:20:38.849Z,87.49
2018-08-06T01:25:34.334Z,87.62
2018-08-06T01:30:30.050Z,87.29
2018-08-06T01:35:25.987Z,87.15
2018-08-06T01:40:21.767Z,85.89
2018-08-06T01:45:18.088Z,86.28
2018-08-06T01:50:14.110Z,85.51
2018-08-06T01:55:09.856Z,86.28
2018-08-06T02:00:05.661Z,87.62
2018-08-06T02:05:02.014Z,89.60
2018-08-06T02:09:58.896Z,90.17
2018-08-06T02:14:54.315Z,90.27
2018-08-06T02:19:50.097Z,89.89
2018-08-06T02:24:47.039Z,89.02
2018-08-06T02:29:43.843Z,89.02
2018-08-06T02:34:39.212Z,89.94
2018-08-06T02:39:35.304Z,89.55
2018-08-06T02:44:31.270Z,90.99
2018-08-06T02:49:28.123Z,91.38
2018-08-06T02:54:23.763Z,91.09
2018-08-06T02:59:19.588Z,89.94
2018-08-06T03:04:15.444Z,91.14
2018-08-06T03:09:11.284Z,92.39
2018-08-06T03:14:06.968Z,92.00
2018-08-06T03:19:03.516Z,91.38
2018-08-06T03:23:59.148Z,91.62
2018-08-06T03:28:55.528Z,90.90
2018-08-06T03:33:51.226Z,91.62
2018-08-06T03:38:46.959Z,92.39
2018-08-06T03:43:43.661Z,93.35
2018-08-06T03:48:39.123Z,94.54
2018-08-06T03:53:34.670Z,94.59
2018-08-06T03:58:30.558Z,93.92
2018-08-06T04:03:26.373Z,94.45
2018-08-06T04:08:22.281Z,94.64
2018-08-06T04:13:19.006Z,95.21
2018-08-06T04:18:14.944Z,95.12
2018-08-06T04:23:10.795Z,94.88
2018-08-06T04:28:06.622Z,95.51
2018-08-06T04:33:03.410Z,95.79
2018-08-06T04:38:00.181Z,95.89
2018-08-06T04:42:55.865Z,95.79
2018-08-06T04:47:52.855Z,93.01
2018-08-06T04:52:49.501Z,91.76
2018-08-06T04:57:46.078Z,91.76
2018-08-06T05:02:42.964Z,90.90
2018-08-06T05:07:38.930Z,90.52
2018-08-06T05:12:34.638Z,90.99
2018-08-06T05:17:31.161Z,90.80
2018-08-06T05:22:27.258Z,89.50
2018-08-06T05:27:23.448Z,87.77
2018-08-06T05:32:22.593Z,87.34
2018-08-06T05:37:18.784Z,85.99
2018-08-06T05:42:14.695Z,85.80
2018-08-06T05:47:11.108Z,84.88
2018-08-06T05:52:07.171Z,82.52
2018-08-06T05:57:03.193Z,81.75
2018-08-06T06:01:59.270Z,81.12
2018-08-06T06:06:55.220Z,80.54
2018-08-06T06:11:51.116Z,80.73
2018-08-06T06:16:47.047Z,80.73
2018-08-06T06:21:42.999Z,80.35
2018-08-06T06:26:39.689Z,80.83
2018-08-06T06:31:35.396Z,80.06
2018-08-06T06:36:32.110Z,80.35
2018-08-06T06:41:27.817Z,78.27
2018-08-06T06:46:25.266Z,76.80
2018-08-06T06:51:20.638Z,76.71
2018-08-06T06:56:16.893Z,76.90
2018-08-06T07:01:13.877Z,76.42
2018-08-06T07:06:09.281Z,75.55
2018-08-06T07:11:05.014Z,76.13
2018-08-06T07:16:01.253Z,74.78
2018-08-06T07:20:57.261Z,72.99
2018-08-06T07:25:53.580Z,74.43
2018-08-06T07:30:49.596Z,73.69
2018-08-06T07:35:45.660Z,72.83
2018-08-06T07:40:41.975Z,71.28
2018-08-06T07:45:38.023Z,70.06
2018-08-06T07:50:35.010Z,68.07
2018-08-06T07:55:31.989Z,66.69
2018-08-06T08:00:30.483Z,62.63
2018-08-06T08:05:28.888Z,59.61
2018-08-06T08:10:27.185Z,54.68
2018-08-06T08:15:25.060Z,50.34
2018-08-06T08:20:22.585Z,47.39
2018-08-06T08:25:20.779Z,47.17
2018-08-06T08:30:17.342Z,47.83
2018-08-06T08:35:13.768Z,47.52
2018-08-06T08:40:10.066Z,47.34
2018-08-06T08:45:06.490Z,46.08
2018-08-06T08:50:02.083Z,48.00
2018-08-06T08:54:56.615Z,48.10
2018-08-06T08:59:52.051Z,48.95
2018-08-06T09:04:46.673Z,49.51
2018-08-06T09:09:41.441Z,49.68
2018-08-06T09:14:36.353Z,49.63
2018-08-06T09:19:32.777Z,49.76
2018-08-06T09:24:31.077Z,47.66
2018-08-06T09:29:29.076Z,45.68
2018-08-06T09:34:27.105Z,44.48
2018-08-06T09:39:24.969Z,44.03
2018-08-06T09:44:21.741Z,42.73
2018-08-06T09:49:18.722Z,41.67
2018-08-06T09:54:16.697Z,40.06
2018-08-06T09:59:13.360Z,39.08
2018-08-06T10:04:10.164Z,40.53
2018-08-06T10:09:06.476Z,39.20
2018-08-06T10:14:02.673Z,39.57
2018-08-06T10:18:57.518Z,40.06
2018-08-06T10:23:54.709Z,40.23
2018-08-06T10:28:51.508Z,39.26
2018-08-06T10:33:48.141Z,40.14
2018-08-06T10:38:44.672Z,39.86
2018-08-06T10:43:41.569Z,38.42
2018-08-06T10:48:37.902Z,40.48
2018-08-06T10:53:33.628Z,40.97
2018-08-06T10:58:29.964Z,40.55
2018-08-06T11:03:26.815Z,38.51
2018-08-06T11:08:23.642Z,38.30
2018-08-06T11:13:20.637Z,39.37
2018-08-06T11:18:16.964Z,38.24
2018-08-06T11:23:13.792Z,38.34
2018-08-06T11:28:10.592Z,36.96
2018-08-06T11:33:07.298Z,37.57
2018-08-06T11:38:04.199Z,37.29
2018-08-06T11:43:00.870Z,37.00
2018-08-06T11:47:57.437Z,36.14
2018-08-06T11:52:54.268Z,34.86
2018-08-06T11:57:50.806Z,36.69
2018-08-06T12:02:46.952Z,35.45
2018-08-06T12:07:43.627Z,34.81
2018-08-06T12:12:40.260Z,33.48
2018-08-06T12:17:37.793Z,33.46
2018-08-06T12:22:33.472Z,33.17
2018-08-06T12:27:29.223Z,33.82
2018-08-06T12:32:26.043Z,34.77
2018-08-06T12:37:21.689Z,34.47
2018-08-06T12:42:16.802Z,36.26
2018-08-06T12:47:11.871Z,36.40
2018-08-06T12:52:04.926Z,37.34
2018-08-06T12:56:59.104Z,37.83
2018-08-06T13:01:58.416Z,36.77
2018-08-06T13:06:55.016Z,36.02
2018-08-06T13:11:52.104Z,35.14
2018-08-06T13:16:47.860Z,34.36
2018-08-06T13:21:44.776Z,32.82
2018-08-06T13:26:41.562Z,32.53
2018-08-06T13:31:37.277Z,33.51
2018-08-06T13:36:33.071Z,34.10
2018-08-06T13:41:28.772Z,33.50
2018-08-06T13:46:24.620Z,33.00
2018-08-06T13:51:20.259Z,32.32
2018-08-06T13:56:16.640Z,32.90
2018-08-06T14:01:12.544Z,33.98
2018-08-06T14:06:07.883Z,33.69
2018-08-06T14:11:04.790Z,34.06
2018-08-06T14:16:00.267Z,34.05
2018-08-06T14:20:55.528Z,36.07
2018-08-06T14:25:51.029Z,38.32
2018-08-06T14:30:47.652Z,36.16
2018-08-06T14:35:43.389Z,37.62
2018-08-06T14:40:40.002Z,38.77
2018-08-06T14:45:36.436Z,39.72
2018-08-06T14:50:32.022Z,39.82
2018-08-06T14:55:27.915Z,40.68
2018-08-06T15:00:23.748Z,38.92
2018-08-06T15:05:19.952Z,39.80
2018-08-06T15:10:16.060Z,40.27
2018-08-06T15:15:13.180Z,39.61
2018-08-06T15:20:09.895Z,40.00
2018-08-06T15:25:05.516Z,40.19
2018-08-06T15:30:01.540Z,39.80
2018-08-06T15:34:58.670Z,39.12
2018-08-06T15:39:54.389Z,40.29
2018-08-06T15:44:50.435Z,40.39
2018-08-06T15:49:46.549Z,40.58
2018-08-06T15:54:43.288Z,42.54
2018-08-06T15:59:39.262Z,40.88
2018-08-06T16:04:36.564Z,40.88
2018-08-06T16:09:32.650Z,41.07
2018-08-06T16:14:29.774Z,40.31
2018-08-06T16:19:25.591Z,38.55
2018-08-06T16:24:21.743Z,38.75
2018-08-06T16:29:17.964Z,38.18
2018-08-06T16:34:14.126Z,37.71
2018-08-06T16:39:10.589Z,37.02
2018-08-06T16:44:06.687Z,35.58
2018-08-06T16:49:02.832Z,35.19
2018-08-06T16:53:58.913Z,36.07
2018-08-06T16:58:55.033Z,35.77
2018-08-06T17:03:52.124Z,37.24
2018-08-06T17:08:48.103Z,37.32
2018-08-06T17:13:43.990Z,36.44
2018-08-06T17:18:40.129Z,36.26
2018-08-06T17:23:36.365Z,35.58
2018-08-06T17:28:32.463Z,35.68
2018-08-06T17:33:28.674Z,36.07
2018-08-06T17:38:24.473Z,36.73
2018-08-06T17:43:20.475Z,38.59
2018-08-06T17:48:16.501Z,37.30
2018-08-06T17:53:13.526Z,36.24
2018-08-06T17:58:10.242Z,36.23
2018-08-06T18:03:06.057Z,37.30
2018-08-06T18:08:01.889Z,39.14
2018-08-06T18:12:57.624Z,39.61
2018-08-06T18:17:54.380Z,40.19
2018-08-06T18:22:50.212Z,41.63
2018-08-06T18:27:46.632Z,42.00
2018-08-06T18:32:42.400Z,42.59
2018-08-06T18:37:38.466Z,42.47
2018-08-06T18:42:35.483Z,41.91
2018-08-06T18:47:32.050Z,42.49
2018-08-06T18:52:28.757Z,42.76
2018-08-06T18:57:24.360Z,42.74
2018-08-06T19:02:20.347Z,42.84
2018-08-06T19:07:17.100Z,44.40
2018-08-06T19:12:13.694Z,43.01
2018-08-06T19:17:09.347Z,42.72
2018-08-06T19:22:06.823Z,42.72
2018-08-06T19:27:02.411Z,42.99
2018-08-06T19:31:58.263Z,43.48
2018-08-06T19:36:54.092Z,45.32
2018-08-06T19:41:51.066Z,46.96
2018-08-06T19:46:46.548Z,47.05
2018-08-06T19:51:42.803Z,49.27
2018-08-06T19:56:39.732Z,49.66
2018-08-06T20:01:35.341Z,49.92
2018-08-06T20:06:32.295Z,50.99
2018-08-06T20:11:28.010Z,51.97
2018-08-06T20:16:24.157Z,50.29
2018-08-06T20:21:21.482Z,51.75
2018-08-06T20:26:17.208Z,48.15
2018-08-06T20:31:12.999Z,49.71
2018-08-06T20:36:10.153Z,50.29
2018-08-06T20:41:05.723Z,51.14
2018-08-06T20:46:01.687Z,52.78
2018-08-06T20:50:58.536Z,55.50
2018-08-06T20:55:55.157Z,54.80
2018-08-06T21:00:51.100Z,54.70
2018-08-06T21:05:47.315Z,54.80
2018-08-06T21:10:44.245Z,55.96
2018-08-06T21:15:39.786Z,56.83
2018-08-06T21:20:35.730Z,55.87
2018-08-06T21:25:31.638Z,56.93
2018-08-06T21:30:28.165Z,56.64
2018-08-06T21:35:24.692Z,57.09
2018-08-06T21:40:20.702Z,58.45
2018-08-06T21:45:16.503Z,58.16
2018-08-06T21:50:12.665Z,59.03
2018-08-06T21:55:08.477Z,58.72
2018-08-06T22:00:05.817Z,59.36
2018-08-06T22:05:01.326Z,60.75
2018-08-06T22:09:57.060Z,60.43
2018-08-06T22:14:53.019Z,60.52
2018-08-06T22:19:49.074Z,61.49
2018-08-06T22:24:45.406Z,62.34
2018-08-06T22:29:41.459Z,62.92
2018-08-06T22:34:37.433Z,62.72
2018-08-06T22:39:33.418Z,63.21
2018-08-06T22:44:30.387Z,64.04
2018-08-06T22:49:26.429Z,63.98
2018-08-06T22:54:22.256Z,64.75
2018-08-06T22:59:19.405Z,64.82
2018-08-06T23:04:15.337Z,65.69
2018-08-06T23:09:11.204Z,66.43
2018-08-06T23:14:07.449Z,66.72
2018-08-06T23:19:03.620Z,68.17
2018-08-06T23:23:59.667Z,67.69
2018-08-06T23:28:55.609Z,67.88
2018-08-06T23:33:51.485Z,67.79
2018-08-06T23:38:47.492Z,68.56
2018-08-06T23:43:43.521Z,67.98
2018-08-06T23:48:40.794Z,69.20
2018-08-06T23:53:36.011Z,68.82
2018-08-06T23:58:33.353Z,69.30
